sensor_id;sensor_type;location;lat;lon;timestamp;P1;durP1;ratioP1;P2;durP2;ratioP2
65182;SDS011;51771;51.068;-1.780;2022-12-18T08:32:18;22.38;;;10.35;;
65182;SDS011;51771;51.068;-1.780;2022-12-18T08:34:43;32.85;;;12.05;;
65182;SDS011;51771;51.068;-1.780;2022-12-18T08:37:08;26.10;;;11.50;;
65182;SDS011;51771;51.068;-1.780;2022-12-18T08:39:33;29.95;;;12.45;;
65182;SDS011;51771;51.068;-1.780;2022-12-18T08:41:59;23.65;;;12.35;;
65182;SDS011;51771;51.068;-1.780;2022-12-18T08:44:43;21.45;;;11.45;;
65182;SDS011;51771;51.068;-1.780;2022-12-18T08:47:08;34.63;;;14.25;;
65182;SDS011;51771;51.068;-1.780;2022-12-18T08:49:33;28.20;;;13.10;;
65182;SDS011;51771;51.068;-1.780;2022-12-18T08:51:59;30.65;;;13.50;;
65182;SDS011;51771;51.068;-1.780;2022-12-18T08:54:24;26.35;;;13.13;;
65182;SDS011;51771;51.068;-1.780;2022-12-18T08:56:49;20.77;;;13.90;;
65182;SDS011;51771;51.068;-1.780;2022-12-18T08:59:15;25.05;;;12.65;;
65182;SDS011;51771;51.068;-1.780;2022-12-18T09:01:40;20.83;;;11.73;;
65182;SDS011;51771;51.068;-1.780;2022-12-18T09:04:07;44.17;;;14.10;;
65182;SDS011;51771;51.068;-1.780;2022-12-18T09:06:32;48.08;;;12.88;;
65182;SDS011;51771;51.068;-1.780;2022-12-18T09:08:57;24.03;;;14.20;;
65182;SDS011;51771;51.068;-1.780;2022-12-18T09:11:24;30.38;;;14.93;;
65182;SDS011;51771;51.068;-1.780;2022-12-18T09:13:50;31.50;;;15.07;;
65182;SDS011;51771;51.068;-1.780;2022-12-18T09:16:15;34.20;;;14.50;;
65182;SDS011;51771;51.068;-1.780;2022-12-18T09:18:40;23.98;;;12.32;;
65182;SDS011;51771;51.068;-1.780;2022-12-18T09:21:13;35.20;;;14.43;;
65182;SDS011;51771;51.068;-1.780;2022-12-18T09:23:38;32.38;;;13.60;;
65182;SDS011;51771;51.068;-1.780;2022-12-18T09:26:03;39.35;;;14.20;;
65182;SDS011;51771;51.068;-1.780;2022-12-18T09:28:29;32.95;;;16.17;;
65182;SDS011;51771;51.068;-1.780;2022-12-18T09:30:54;41.35;;;16.33;;
65182;SDS011;51771;51.068;-1.780;2022-12-18T09:33:19;38.50;;;16.27;;
65182;SDS011;51771;51.068;-1.780;2022-12-18T09:35:45;31.43;;;14.63;;
65182;SDS011;51771;51.068;-1.780;2022-12-18T09:38:11;29.83;;;14.27;;
65182;SDS011;51771;51.068;-1.780;2022-12-18T09:40:41;35.17;;;16.38;;
65182;SDS011;51771;51.068;-1.780;2022-12-18T09:43:10;39.13;;;16.45;;
65182;SDS011;51771;51.068;-1.780;2022-12-18T09:45:39;42.72;;;18.25;;
65182;SDS011;51771;51.068;-1.780;2022-12-18T09:48:05;35.15;;;15.85;;
65182;SDS011;51771;51.068;-1.780;2022-12-18T09:50:34;40.00;;;16.80;;
65182;SDS011;51771;51.068;-1.780;2022-12-18T09:53:02;38.67;;;18.08;;
65182;SDS011;51771;51.068;-1.780;2022-12-18T09:57:58;44.83;;;16.67;;
65182;SDS011;51771;51.068;-1.780;2022-12-18T10:00:26;36.13;;;17.40;;
65182;SDS011;51771;51.068;-1.780;2022-12-18T10:02:51;29.90;;;16.27;;
65182;SDS011;51771;51.068;-1.780;2022-12-18T10:05:26;44.25;;;16.45;;
65182;SDS011;51771;51.068;-1.780;2022-12-18T10:10:23;38.33;;;16.05;;
65182;SDS011;51771;51.068;-1.780;2022-12-18T10:20:49;36.72;;;17.65;;
65182;SDS011;51771;51.068;-1.780;2022-12-18T10:28:24;62.50;;;18.90;;
65182;SDS011;51771;51.068;-1.780;2022-12-18T10:30:50;43.65;;;20.00;;
65182;SDS011;51771;51.068;-1.780;2022-12-18T10:33:17;39.13;;;19.17;;
65182;SDS011;51771;51.068;-1.780;2022-12-18T10:35:42;48.72;;;21.55;;
65182;SDS011;51771;51.068;-1.780;2022-12-18T10:40:50;33.33;;;15.70;;
65182;SDS011;51771;51.068;-1.780;2022-12-18T10:43:19;49.05;;;18.88;;
65182;SDS011;51771;51.068;-1.780;2022-12-18T10:45:49;43.22;;;20.33;;
65182;SDS011;51771;51.068;-1.780;2022-12-18T10:48:22;34.58;;;18.45;;
65182;SDS011;51771;51.068;-1.780;2022-12-18T10:50:49;39.13;;;20.30;;
65182;SDS011;51771;51.068;-1.780;2022-12-18T10:53:19;44.47;;;21.48;;
65182;SDS011;51771;51.068;-1.780;2022-12-18T10:55:45;72.88;;;21.25;;
65182;SDS011;51771;51.068;-1.780;2022-12-18T11:03:33;36.20;;;19.90;;
65182;SDS011;51771;51.068;-1.780;2022-12-18T11:08:31;46.03;;;18.05;;
65182;SDS011;51771;51.068;-1.780;2022-12-18T11:10:57;58.03;;;22.48;;
65182;SDS011;51771;51.068;-1.780;2022-12-18T11:13:23;45.00;;;23.40;;
65182;SDS011;51771;51.068;-1.780;2022-12-18T11:15:49;40.78;;;18.00;;
65182;SDS011;51771;51.068;-1.780;2022-12-18T11:18:20;45.65;;;20.58;;
65182;SDS011;51771;51.068;-1.780;2022-12-18T11:20:50;46.00;;;23.25;;
65182;SDS011;51771;51.068;-1.780;2022-12-18T11:23:16;49.05;;;23.95;;
65182;SDS011;51771;51.068;-1.780;2022-12-18T11:25:50;43.42;;;20.92;;
65182;SDS011;51771;51.068;-1.780;2022-12-18T11:33:49;55.83;;;24.25;;
65182;SDS011;51771;51.068;-1.780;2022-12-18T11:36:16;59.45;;;25.90;;
65182;SDS011;51771;51.068;-1.780;2022-12-18T11:38:41;46.67;;;21.85;;
65182;SDS011;51771;51.068;-1.780;2022-12-18T11:46:19;47.78;;;20.98;;
65182;SDS011;51771;51.068;-1.780;2022-12-18T11:48:53;42.20;;;19.27;;
65182;SDS011;51771;51.068;-1.780;2022-12-18T11:51:26;46.97;;;23.10;;
65182;SDS011;51771;51.068;-1.780;2022-12-18T11:53:53;37.42;;;20.40;;
65182;SDS011;51771;51.068;-1.780;2022-12-18T11:56:31;36.30;;;17.40;;
65182;SDS011;51771;51.068;-1.780;2022-12-18T12:06:28;34.83;;;19.67;;
65182;SDS011;51771;51.068;-1.780;2022-12-18T12:21:43;37.95;;;18.40;;
65182;SDS011;51771;51.068;-1.780;2022-12-18T12:27:03;33.65;;;16.85;;
65182;SDS011;51771;51.068;-1.780;2022-12-18T12:34:27;37.60;;;15.43;;
65182;SDS011;51771;51.068;-1.780;2022-12-18T12:37:19;28.15;;;14.20;;
65182;SDS011;51771;51.068;-1.780;2022-12-18T12:39:42;36.80;;;15.35;;
65182;SDS011;51771;51.068;-1.780;2022-12-18T12:42:52;26.38;;;13.57;;
65182;SDS011;51771;51.068;-1.780;2022-12-18T12:45:17;20.65;;;12.18;;
65182;SDS011;51771;51.068;-1.780;2022-12-18T12:47:44;19.33;;;11.82;;
65182;SDS011;51771;51.068;-1.780;2022-12-18T12:50:14;21.20;;;11.75;;
65182;SDS011;51771;51.068;-1.780;2022-12-18T12:52:42;18.15;;;11.15;;
65182;SDS011;51771;51.068;-1.780;2022-12-18T12:55:13;23.48;;;11.75;;
65182;SDS011;51771;51.068;-1.780;2022-12-18T12:57:40;22.48;;;11.57;;
65182;SDS011;51771;51.068;-1.780;2022-12-18T13:02:42;14.75;;;10.38;;
65182;SDS011;51771;51.068;-1.780;2022-12-18T13:05:14;20.02;;;9.23;;
65182;SDS011;51771;51.068;-1.780;2022-12-18T13:10:31;17.20;;;9.73;;
65182;SDS011;51771;51.068;-1.780;2022-12-18T13:13:07;17.05;;;10.25;;
65182;SDS011;51771;51.068;-1.780;2022-12-18T13:18:04;20.03;;;10.17;;
65182;SDS011;51771;51.068;-1.780;2022-12-18T13:20:37;19.17;;;8.25;;
65182;SDS011;51771;51.068;-1.780;2022-12-18T13:23:23;20.88;;;7.90;;
65182;SDS011;51771;51.068;-1.780;2022-12-18T13:29:03;14.10;;;8.27;;
65182;SDS011;51771;51.068;-1.780;2022-12-18T13:36:40;7.53;;;5.68;;
65182;SDS011;51771;51.068;-1.780;2022-12-18T13:39:10;7.40;;;4.78;;
65182;SDS011;51771;51.068;-1.780;2022-12-18T13:41:35;11.90;;;5.30;;
65182;SDS011;51771;51.068;-1.780;2022-12-18T13:44:43;8.73;;;5.97;;
65182;SDS011;51771;51.068;-1.780;2022-12-18T13:46:49;5.63;;;4.85;;
65182;SDS011;51771;51.068;-1.780;2022-12-18T13:51:47;5.15;;;4.55;;
65182;SDS011;51771;51.068;-1.780;2022-12-18T13:56:45;6.18;;;5.32;;
65182;SDS011;51771;51.068;-1.780;2022-12-18T13:59:12;5.05;;;4.25;;
65182;SDS011;51771;51.068;-1.780;2022-12-18T14:01:41;11.93;;;5.45;;
65182;SDS011;51771;51.068;-1.780;2022-12-18T14:04:10;10.95;;;4.85;;
65182;SDS011;51771;51.068;-1.780;2022-12-18T14:06:36;9.98;;;4.20;;
65182;SDS011;51771;51.068;-1.780;2022-12-18T14:09:02;12.75;;;4.28;;
65182;SDS011;51771;51.068;-1.780;2022-12-18T14:11:27;6.40;;;4.00;;
65182;SDS011;51771;51.068;-1.780;2022-12-18T14:13:52;3.90;;;3.55;;
65182;SDS011;51771;51.068;-1.780;2022-12-18T14:16:17;9.20;;;4.75;;
65182;SDS011;51771;51.068;-1.780;2022-12-18T14:18:48;10.48;;;4.88;;
65182;SDS011;51771;51.068;-1.780;2022-12-18T14:21:17;7.55;;;3.92;;
65182;SDS011;51771;51.068;-1.780;2022-12-18T14:23:42;4.65;;;4.25;;
65182;SDS011;51771;51.068;-1.780;2022-12-18T14:26:27;4.93;;;4.07;;
65182;SDS011;51771;51.068;-1.780;2022-12-18T14:28:57;6.85;;;4.20;;
65182;SDS011;51771;51.068;-1.780;2022-12-18T14:31:24;5.50;;;3.70;;
65182;SDS011;51771;51.068;-1.780;2022-12-18T14:33:49;5.95;;;3.47;;
65182;SDS011;51771;51.068;-1.780;2022-12-18T14:36:16;6.88;;;3.67;;
65182;SDS011;51771;51.068;-1.780;2022-12-18T14:38:42;5.05;;;3.95;;
65182;SDS011;51771;51.068;-1.780;2022-12-18T14:41:14;7.95;;;3.40;;
65182;SDS011;51771;51.068;-1.780;2022-12-18T14:43:43;9.55;;;4.25;;
65182;SDS011;51771;51.068;-1.780;2022-12-18T14:48:49;8.63;;;3.92;;
65182;SDS011;51771;51.068;-1.780;2022-12-18T14:51:18;8.27;;;5.00;;
65182;SDS011;51771;51.068;-1.780;2022-12-18T14:56:13;10.98;;;4.20;;
65182;SDS011;51771;51.068;-1.780;2022-12-18T14:58:39;7.25;;;4.90;;
65182;SDS011;51771;51.068;-1.780;2022-12-18T15:01:08;4.60;;;3.80;;
65182;SDS011;51771;51.068;-1.780;2022-12-18T15:03:43;10.57;;;3.97;;
65182;SDS011;51771;51.068;-1.780;2022-12-18T15:06:15;4.97;;;2.97;;
65182;SDS011;51771;51.068;-1.780;2022-12-18T15:08:40;5.88;;;3.53;;
65182;SDS011;51771;51.068;-1.780;2022-12-18T15:11:23;4.50;;;3.47;;
65182;SDS011;51771;51.068;-1.780;2022-12-18T15:13:49;4.43;;;2.92;;
65182;SDS011;51771;51.068;-1.780;2022-12-18T15:16:15;6.37;;;2.57;;
65182;SDS011;51771;51.068;-1.780;2022-12-18T15:18:41;11.40;;;3.63;;
65182;SDS011;51771;51.068;-1.780;2022-12-18T15:21:07;4.47;;;3.22;;
65182;SDS011;51771;51.068;-1.780;2022-12-18T15:23:52;4.75;;;2.50;;
65182;SDS011;51771;51.068;-1.780;2022-12-18T15:26:18;2.97;;;2.38;;
65182;SDS011;51771;51.068;-1.780;2022-12-18T15:28:54;5.25;;;2.70;;
65182;SDS011;51771;51.068;-1.780;2022-12-18T15:31:31;7.38;;;2.83;;
65182;SDS011;51771;51.068;-1.780;2022-12-18T15:34:10;10.30;;;3.58;;
65182;SDS011;51771;51.068;-1.780;2022-12-18T15:36:35;9.27;;;2.65;;
65182;SDS011;51771;51.068;-1.780;2022-12-18T15:39:01;10.07;;;3.80;;
65182;SDS011;51771;51.068;-1.780;2022-12-18T15:41:27;12.10;;;3.58;;
65182;SDS011;51771;51.068;-1.780;2022-12-18T15:43:52;4.97;;;3.17;;
65182;SDS011;51771;51.068;-1.780;2022-12-18T15:46:19;12.23;;;4.15;;
65182;SDS011;51771;51.068;-1.780;2022-12-18T15:48:45;5.72;;;3.25;;
65182;SDS011;51771;51.068;-1.780;2022-12-18T15:51:21;6.97;;;3.10;;
65182;SDS011;51771;51.068;-1.780;2022-12-18T15:53:47;5.65;;;3.05;;
65182;SDS011;51771;51.068;-1.780;2022-12-18T15:56:14;5.00;;;3.33;;
65182;SDS011;51771;51.068;-1.780;2022-12-18T15:58:58;5.85;;;2.67;;
65182;SDS011;51771;51.068;-1.780;2022-12-18T16:01:24;9.32;;;3.28;;
65182;SDS011;51771;51.068;-1.780;2022-12-18T16:03:50;5.47;;;2.58;;
65182;SDS011;51771;51.068;-1.780;2022-12-18T16:06:15;7.57;;;3.00;;
65182;SDS011;51771;51.068;-1.780;2022-12-18T16:08:40;4.88;;;2.85;;
65182;SDS011;51771;51.068;-1.780;2022-12-18T16:11:08;3.67;;;3.37;;
65182;SDS011;51771;51.068;-1.780;2022-12-18T16:13:39;5.10;;;3.63;;
65182;SDS011;51771;51.068;-1.780;2022-12-18T16:16:04;8.37;;;3.33;;
65182;SDS011;51771;51.068;-1.780;2022-12-18T16:18:30;11.25;;;3.45;;
65182;SDS011;51771;51.068;-1.780;2022-12-18T16:20:55;3.47;;;3.17;;
65182;SDS011;51771;51.068;-1.780;2022-12-18T16:23:20;6.22;;;3.00;;
65182;SDS011;51771;51.068;-1.780;2022-12-18T16:25:45;5.30;;;3.13;;
65182;SDS011;51771;51.068;-1.780;2022-12-18T16:28:11;14.00;;;3.67;;
65182;SDS011;51771;51.068;-1.780;2022-12-18T16:30:36;13.23;;;4.30;;
65182;SDS011;51771;51.068;-1.780;2022-12-18T16:33:01;12.00;;;4.30;;
65182;SDS011;51771;51.068;-1.780;2022-12-18T16:35:26;21.15;;;4.85;;
65182;SDS011;51771;51.068;-1.780;2022-12-18T16:37:52;16.08;;;5.55;;
65182;SDS011;51771;51.068;-1.780;2022-12-18T16:40:18;20.60;;;5.88;;
65182;SDS011;51771;51.068;-1.780;2022-12-18T16:42:44;24.15;;;6.25;;
65182;SDS011;51771;51.068;-1.780;2022-12-18T16:45:11;43.58;;;7.47;;
65182;SDS011;51771;51.068;-1.780;2022-12-18T16:47:37;29.60;;;7.50;;
65182;SDS011;51771;51.068;-1.780;2022-12-18T16:50:03;38.53;;;8.73;;
65182;SDS011;51771;51.068;-1.780;2022-12-18T16:52:28;23.25;;;6.05;;
65182;SDS011;51771;51.068;-1.780;2022-12-18T16:54:54;25.83;;;7.80;;
65182;SDS011;51771;51.068;-1.780;2022-12-18T16:57:19;39.87;;;7.13;;
65182;SDS011;51771;51.068;-1.780;2022-12-18T16:59:45;31.85;;;7.72;;
65182;SDS011;51771;51.068;-1.780;2022-12-18T17:02:12;28.15;;;8.70;;
65182;SDS011;51771;51.068;-1.780;2022-12-18T17:04:38;21.10;;;7.38;;
65182;SDS011;51771;51.068;-1.780;2022-12-18T17:07:03;32.47;;;7.43;;
65182;SDS011;51771;51.068;-1.780;2022-12-18T17:09:28;35.83;;;8.10;;
65182;SDS011;51771;51.068;-1.780;2022-12-18T17:11:54;17.63;;;6.68;;
65182;SDS011;51771;51.068;-1.780;2022-12-18T17:14:20;34.28;;;7.78;;
65182;SDS011;51771;51.068;-1.780;2022-12-18T17:16:46;23.05;;;6.93;;
65182;SDS011;51771;51.068;-1.780;2022-12-18T17:19:12;21.20;;;7.78;;
65182;SDS011;51771;51.068;-1.780;2022-12-18T17:21:38;23.52;;;6.00;;
65182;SDS011;51771;51.068;-1.780;2022-12-18T17:24:03;45.05;;;8.38;;
65182;SDS011;51771;51.068;-1.780;2022-12-18T17:26:28;25.17;;;6.90;;
65182;SDS011;51771;51.068;-1.780;2022-12-18T17:28:57;30.17;;;7.00;;
65182;SDS011;51771;51.068;-1.780;2022-12-18T17:31:23;18.65;;;6.55;;
65182;SDS011;51771;51.068;-1.780;2022-12-18T17:33:48;29.58;;;7.38;;
65182;SDS011;51771;51.068;-1.780;2022-12-18T17:36:14;27.38;;;7.38;;
65182;SDS011;51771;51.068;-1.780;2022-12-18T17:38:40;28.08;;;6.97;;
65182;SDS011;51771;51.068;-1.780;2022-12-18T17:41:06;31.52;;;6.93;;
65182;SDS011;51771;51.068;-1.780;2022-12-18T17:43:32;25.45;;;8.18;;
65182;SDS011;51771;51.068;-1.780;2022-12-18T17:46:02;22.65;;;5.97;;
65182;SDS011;51771;51.068;-1.780;2022-12-18T17:48:28;37.67;;;7.50;;
65182;SDS011;51771;51.068;-1.780;2022-12-18T17:50:53;20.80;;;6.68;;
65182;SDS011;51771;51.068;-1.780;2022-12-18T17:53:18;36.27;;;8.00;;
65182;SDS011;51771;51.068;-1.780;2022-12-18T17:55:52;25.83;;;7.57;;
65182;SDS011;51771;51.068;-1.780;2022-12-18T17:58:17;39.95;;;9.73;;
65182;SDS011;51771;51.068;-1.780;2022-12-18T18:00:42;37.03;;;8.70;;
65182;SDS011;51771;51.068;-1.780;2022-12-18T18:03:07;41.93;;;8.90;;
65182;SDS011;51771;51.068;-1.780;2022-12-18T18:05:32;37.17;;;9.73;;
65182;SDS011;51771;51.068;-1.780;2022-12-18T18:07:58;33.70;;;9.37;;
65182;SDS011;51771;51.068;-1.780;2022-12-18T18:10:24;40.65;;;11.93;;
65182;SDS011;51771;51.068;-1.780;2022-12-18T18:12:49;32.87;;;8.87;;
65182;SDS011;51771;51.068;-1.780;2022-12-18T18:15:33;35.83;;;11.00;;
65182;SDS011;51771;51.068;-1.780;2022-12-18T18:17:59;43.57;;;10.53;;
65182;SDS011;51771;51.068;-1.780;2022-12-18T18:20:24;36.17;;;11.40;;
65182;SDS011;51771;51.068;-1.780;2022-12-18T18:22:49;43.60;;;10.40;;
65182;SDS011;51771;51.068;-1.780;2022-12-18T18:25:15;36.63;;;10.48;;
65182;SDS011;51771;51.068;-1.780;2022-12-18T18:27:40;39.75;;;11.27;;
65182;SDS011;51771;51.068;-1.780;2022-12-18T18:30:06;40.47;;;10.75;;
65182;SDS011;51771;51.068;-1.780;2022-12-18T18:32:31;34.42;;;11.45;;
65182;SDS011;51771;51.068;-1.780;2022-12-18T18:34:57;41.03;;;13.60;;
65182;SDS011;51771;51.068;-1.780;2022-12-18T18:37:22;57.10;;;11.60;;
65182;SDS011;51771;51.068;-1.780;2022-12-18T18:39:47;38.27;;;10.50;;
65182;SDS011;51771;51.068;-1.780;2022-12-18T18:42:12;44.63;;;11.77;;
65182;SDS011;51771;51.068;-1.780;2022-12-18T18:44:37;30.43;;;11.77;;
65182;SDS011;51771;51.068;-1.780;2022-12-18T18:47:03;57.00;;;13.45;;
65182;SDS011;51771;51.068;-1.780;2022-12-18T18:49:28;32.50;;;11.80;;
65182;SDS011;51771;51.068;-1.780;2022-12-18T18:51:54;56.10;;;12.18;;
65182;SDS011;51771;51.068;-1.780;2022-12-18T18:54:20;53.63;;;11.65;;
65182;SDS011;51771;51.068;-1.780;2022-12-18T18:56:45;41.25;;;12.40;;
65182;SDS011;51771;51.068;-1.780;2022-12-18T18:59:10;50.03;;;12.02;;
65182;SDS011;51771;51.068;-1.780;2022-12-18T19:01:35;49.42;;;9.93;;
65182;SDS011;51771;51.068;-1.780;2022-12-18T19:04:01;54.87;;;11.33;;
65182;SDS011;51771;51.068;-1.780;2022-12-18T19:06:26;48.22;;;12.23;;
65182;SDS011;51771;51.068;-1.780;2022-12-18T19:08:52;44.10;;;9.82;;
65182;SDS011;51771;51.068;-1.780;2022-12-18T19:11:18;47.03;;;11.20;;
65182;SDS011;51771;51.068;-1.780;2022-12-18T19:14:02;41.47;;;11.73;;
65182;SDS011;51771;51.068;-1.780;2022-12-18T19:16:28;26.48;;;9.50;;
65182;SDS011;51771;51.068;-1.780;2022-12-18T19:18:54;28.73;;;11.27;;
65182;SDS011;51771;51.068;-1.780;2022-12-18T19:21:20;38.10;;;11.35;;
65182;SDS011;51771;51.068;-1.780;2022-12-18T19:23:45;35.33;;;8.65;;
65182;SDS011;51771;51.068;-1.780;2022-12-18T19:26:11;33.67;;;10.45;;
65182;SDS011;51771;51.068;-1.780;2022-12-18T19:28:37;37.35;;;10.70;;
65182;SDS011;51771;51.068;-1.780;2022-12-18T19:31:03;36.22;;;9.00;;
65182;SDS011;51771;51.068;-1.780;2022-12-18T19:33:34;29.95;;;8.80;;
65182;SDS011;51771;51.068;-1.780;2022-12-18T19:35:59;22.58;;;9.18;;
65182;SDS011;51771;51.068;-1.780;2022-12-18T19:38:24;23.67;;;7.30;;
65182;SDS011;51771;51.068;-1.780;2022-12-18T19:40:50;33.80;;;9.73;;
65182;SDS011;51771;51.068;-1.780;2022-12-18T19:43:15;27.77;;;8.68;;
65182;SDS011;51771;51.068;-1.780;2022-12-18T19:45:40;32.35;;;8.50;;
65182;SDS011;51771;51.068;-1.780;2022-12-18T19:48:06;38.55;;;10.00;;
65182;SDS011;51771;51.068;-1.780;2022-12-18T19:50:32;51.55;;;9.40;;
65182;SDS011;51771;51.068;-1.780;2022-12-18T19:52:57;34.70;;;9.43;;
65182;SDS011;51771;51.068;-1.780;2022-12-18T19:55:23;22.38;;;6.72;;
65182;SDS011;51771;51.068;-1.780;2022-12-18T19:57:48;20.13;;;6.28;;
65182;SDS011;51771;51.068;-1.780;2022-12-18T20:00:13;29.45;;;6.55;;
65182;SDS011;51771;51.068;-1.780;2022-12-18T20:02:38;19.40;;;7.72;;
65182;SDS011;51771;51.068;-1.780;2022-12-18T20:05:05;26.42;;;6.80;;
65182;SDS011;51771;51.068;-1.780;2022-12-18T20:07:30;27.85;;;8.50;;
65182;SDS011;51771;51.068;-1.780;2022-12-18T20:09:56;22.35;;;6.90;;
65182;SDS011;51771;51.068;-1.780;2022-12-18T20:12:21;18.63;;;5.93;;
65182;SDS011;51771;51.068;-1.780;2022-12-18T20:14:46;22.33;;;7.53;;
65182;SDS011;51771;51.068;-1.780;2022-12-18T20:17:11;23.80;;;6.03;;
65182;SDS011;51771;51.068;-1.780;2022-12-18T20:19:36;24.07;;;5.93;;
65182;SDS011;51771;51.068;-1.780;2022-12-18T20:22:02;25.50;;;5.70;;
65182;SDS011;51771;51.068;-1.780;2022-12-18T20:24:27;33.50;;;5.40;;
65182;SDS011;51771;51.068;-1.780;2022-12-18T20:26:53;11.90;;;5.38;;
65182;SDS011;51771;51.068;-1.780;2022-12-18T20:29:21;15.13;;;5.45;;
65182;SDS011;51771;51.068;-1.780;2022-12-18T20:31:46;17.75;;;5.57;;
65182;SDS011;51771;51.068;-1.780;2022-12-18T20:34:11;27.35;;;5.45;;
65182;SDS011;51771;51.068;-1.780;2022-12-18T20:36:37;14.67;;;5.10;;
65182;SDS011;51771;51.068;-1.780;2022-12-18T20:39:05;20.83;;;5.35;;
65182;SDS011;51771;51.068;-1.780;2022-12-18T20:41:30;17.50;;;4.10;;
65182;SDS011;51771;51.068;-1.780;2022-12-18T20:43:56;8.82;;;3.95;;
65182;SDS011;51771;51.068;-1.780;2022-12-18T20:46:21;24.57;;;5.03;;
65182;SDS011;51771;51.068;-1.780;2022-12-18T20:48:49;39.83;;;5.43;;
65182;SDS011;51771;51.068;-1.780;2022-12-18T20:51:18;15.52;;;3.45;;
65182;SDS011;51771;51.068;-1.780;2022-12-18T20:53:44;22.50;;;4.32;;
65182;SDS011;51771;51.068;-1.780;2022-12-18T20:56:19;8.77;;;3.83;;
65182;SDS011;51771;51.068;-1.780;2022-12-18T20:58:45;11.02;;;3.85;;
65182;SDS011;51771;51.068;-1.780;2022-12-18T21:01:11;10.85;;;3.78;;
65182;SDS011;51771;51.068;-1.780;2022-12-18T21:03:37;15.10;;;3.38;;
65182;SDS011;51771;51.068;-1.780;2022-12-18T21:06:04;20.60;;;3.95;;
65182;SDS011;51771;51.068;-1.780;2022-12-18T21:08:29;14.40;;;4.40;;
65182;SDS011;51771;51.068;-1.780;2022-12-18T21:10:55;22.70;;;5.00;;
65182;SDS011;51771;51.068;-1.780;2022-12-18T21:13:21;30.52;;;5.47;;
65182;SDS011;51771;51.068;-1.780;2022-12-18T21:15:46;18.05;;;5.35;;
65182;SDS011;51771;51.068;-1.780;2022-12-18T21:18:11;25.13;;;6.53;;
65182;SDS011;51771;51.068;-1.780;2022-12-18T21:20:37;28.05;;;5.75;;
65182;SDS011;51771;51.068;-1.780;2022-12-18T21:23:02;38.63;;;6.05;;
65182;SDS011;51771;51.068;-1.780;2022-12-18T21:25:28;36.78;;;6.30;;
65182;SDS011;51771;51.068;-1.780;2022-12-18T21:27:53;23.85;;;6.68;;
65182;SDS011;51771;51.068;-1.780;2022-12-18T21:30:19;25.95;;;5.93;;
65182;SDS011;51771;51.068;-1.780;2022-12-18T21:32:45;21.00;;;5.53;;
65182;SDS011;51771;51.068;-1.780;2022-12-18T21:35:10;32.07;;;5.90;;
65182;SDS011;51771;51.068;-1.780;2022-12-18T21:37:35;44.53;;;6.50;;
65182;SDS011;51771;51.068;-1.780;2022-12-18T21:40:00;40.92;;;7.13;;
65182;SDS011;51771;51.068;-1.780;2022-12-18T21:42:26;47.17;;;7.20;;
65182;SDS011;51771;51.068;-1.780;2022-12-18T21:45:10;46.25;;;7.07;;
65182;SDS011;51771;51.068;-1.780;2022-12-18T21:47:36;48.45;;;9.00;;
65182;SDS011;51771;51.068;-1.780;2022-12-18T21:50:01;52.40;;;7.73;;
65182;SDS011;51771;51.068;-1.780;2022-12-18T21:52:26;32.47;;;7.03;;
65182;SDS011;51771;51.068;-1.780;2022-12-18T21:54:51;23.70;;;5.37;;
65182;SDS011;51771;51.068;-1.780;2022-12-18T21:57:16;31.80;;;5.40;;
65182;SDS011;51771;51.068;-1.780;2022-12-18T21:59:42;31.27;;;5.45;;
65182;SDS011;51771;51.068;-1.780;2022-12-18T22:02:12;40.13;;;6.32;;
65182;SDS011;51771;51.068;-1.780;2022-12-18T22:04:38;27.38;;;5.82;;
65182;SDS011;51771;51.068;-1.780;2022-12-18T22:07:03;25.40;;;6.32;;
65182;SDS011;51771;51.068;-1.780;2022-12-18T22:09:29;34.78;;;5.35;;
65182;SDS011;51771;51.068;-1.780;2022-12-18T22:11:54;42.10;;;6.50;;
65182;SDS011;51771;51.068;-1.780;2022-12-18T22:14:20;30.77;;;7.33;;
65182;SDS011;51771;51.068;-1.780;2022-12-18T22:16:45;19.38;;;4.78;;
65182;SDS011;51771;51.068;-1.780;2022-12-18T22:19:11;23.95;;;5.50;;
65182;SDS011;51771;51.068;-1.780;2022-12-18T22:21:40;29.08;;;4.38;;
65182;SDS011;51771;51.068;-1.780;2022-12-18T22:24:06;37.60;;;5.38;;
65182;SDS011;51771;51.068;-1.780;2022-12-18T22:26:32;22.48;;;4.65;;
65182;SDS011;51771;51.068;-1.780;2022-12-18T22:28:58;34.33;;;4.60;;
